createdAt,value
2018-11-23T00:00:31.098Z,28.38
2018-11-23T00:03:00.746Z,29.07
2018-11-23T00:05:29.925Z,28.85
2018-11-23T00:07:59.697Z,30.23
2018-11-23T00:10:30.066Z,30.20
2018-11-23T00:12:59.216Z,30.27
2018-11-23T00:15:28.377Z,28.67
2018-11-23T00:17:57.524Z,28.77
2018-11-23T00:20:27.891Z,29.52
2018-11-23T00:22:57.221Z,28.65
2018-11-23T00:25:27.145Z,30.97
2018-11-23T00:27:58.167Z,30.43
2018-11-23T00:30:28.626Z,31.30
2018-11-23T00:32:58.530Z,31.07
2018-11-23T00:35:29.340Z,30.48
2018-11-23T00:37:58.575Z,29.40
2018-11-23T00:40:29.112Z,31.27
2018-11-23T00:42:58.880Z,32.20
2018-11-23T00:45:28.277Z,29.98
2018-11-23T00:47:58.150Z,29.87
2018-11-23T00:50:27.942Z,33.10
2018-11-23T00:52:58.581Z,31.00
2018-11-23T00:55:28.827Z,31.35
2018-11-23T00:57:57.903Z,30.45
2018-11-23T01:00:30.335Z,31.10
2018-11-23T01:03:00.614Z,30.95
2018-11-23T01:05:30.105Z,32.13
2018-11-23T01:07:59.501Z,32.38
2018-11-23T01:10:30.937Z,31.95
2018-11-23T01:13:00.461Z,32.95
2018-11-23T01:15:30.010Z,33.80
2018-11-23T01:17:59.243Z,33.95
2018-11-23T01:20:29.054Z,31.70
2018-11-23T01:22:58.604Z,31.93
2018-11-23T01:28:25.797Z,31.00
2018-11-23T01:30:55.558Z,33.55
2018-11-23T01:33:25.056Z,34.48
2018-11-23T01:35:54.887Z,33.58
2018-11-23T01:38:24.496Z,32.95
2018-11-23T01:40:53.976Z,34.15
2018-11-23T01:43:23.230Z,32.20
2018-11-23T01:45:52.513Z,32.95
2018-11-23T01:48:21.789Z,33.00
2018-11-23T01:50:51.010Z,33.42
2018-11-23T01:53:22.213Z,34.70
2018-11-23T01:55:51.652Z,35.00
2018-11-23T01:58:21.022Z,35.80
2018-11-23T02:00:50.347Z,33.85
2018-11-23T02:03:19.636Z,34.20
2018-11-23T02:05:48.900Z,32.83
2018-11-23T02:08:18.218Z,34.00
2018-11-23T02:10:47.532Z,34.90
2018-11-23T02:13:16.728Z,31.57
2018-11-23T02:15:46.857Z,33.05
2018-11-23T02:18:16.129Z,32.73
2018-11-23T02:20:45.498Z,32.48
2018-11-23T02:23:14.931Z,33.15
2018-11-23T02:25:44.178Z,34.30
2018-11-23T02:28:13.281Z,33.78
2018-11-23T02:30:42.751Z,34.35
2018-11-23T02:33:12.244Z,33.45
2018-11-23T02:35:45.188Z,34.60
2018-11-23T02:38:14.877Z,33.08
2018-11-23T02:40:44.053Z,32.80
2018-11-23T02:43:13.629Z,32.15
2018-11-23T02:45:43.146Z,32.55
2018-11-23T02:48:12.374Z,31.80
2018-11-23T02:50:41.782Z,33.02
2018-11-23T02:53:11.087Z,34.10
2018-11-23T02:55:40.367Z,31.80
2018-11-23T02:58:09.630Z,33.98
2018-11-23T03:00:39.383Z,32.95
2018-11-23T03:03:08.872Z,32.40
2018-11-23T03:05:38.082Z,32.90
2018-11-23T03:08:07.400Z,32.98
2018-11-23T03:10:36.728Z,34.88
2018-11-23T03:13:06.146Z,32.55
2018-11-23T03:15:35.599Z,31.68
2018-11-23T03:18:06.219Z,33.20
2018-11-23T03:20:35.820Z,30.92
2018-11-23T03:23:05.116Z,32.60
2018-11-23T03:25:35.210Z,33.48
2018-11-23T03:28:04.542Z,32.20
2018-11-23T03:30:33.646Z,33.63
2018-11-23T03:33:02.885Z,32.38
2018-11-23T03:35:32.191Z,33.18
2018-11-23T03:38:01.386Z,31.30
2018-11-23T03:40:30.500Z,44.58
2018-11-23T03:42:59.635Z,36.17
2018-11-23T03:45:28.723Z,41.40
2018-11-23T03:47:57.880Z,33.58
2018-11-23T03:50:27.210Z,42.73
2018-11-23T03:52:58.070Z,63.40
2018-11-23T03:55:27.617Z,35.65
2018-11-23T03:57:57.574Z,34.43
2018-11-23T04:00:27.667Z,31.02
2018-11-23T04:02:57.032Z,32.88
2018-11-23T04:05:26.103Z,34.05
2018-11-23T04:07:55.254Z,31.62
2018-11-23T04:10:24.412Z,32.25
2018-11-23T04:12:53.504Z,32.25
2018-11-23T04:15:22.804Z,33.78
2018-11-23T04:17:52.171Z,33.15
2018-11-23T04:20:21.505Z,32.70
2018-11-23T04:22:50.740Z,33.42
2018-11-23T04:25:20.141Z,33.18
2018-11-23T04:27:49.375Z,32.90
2018-11-23T04:30:18.723Z,33.02
2018-11-23T04:32:48.481Z,32.58
2018-11-23T04:35:19.006Z,33.65
2018-11-23T04:37:48.767Z,32.58
2018-11-23T04:40:19.263Z,32.48
2018-11-23T04:45:26.513Z,34.70
2018-11-23T04:47:55.647Z,31.77
2018-11-23T04:50:24.835Z,33.88
2018-11-23T04:52:53.897Z,32.25
2018-11-23T04:55:23.166Z,30.55
2018-11-23T04:57:53.733Z,32.88
2018-11-23T05:00:21.353Z,32.53
2018-11-23T05:02:50.501Z,34.08
2018-11-23T05:05:19.571Z,33.73
2018-11-23T05:07:48.978Z,33.88
2018-11-23T05:10:18.682Z,31.82
2018-11-23T05:12:47.781Z,31.82
2018-11-23T05:15:18.000Z,31.95
2018-11-23T05:17:47.391Z,32.05
2018-11-23T05:20:17.327Z,32.58
2018-11-23T05:22:46.457Z,32.90
2018-11-23T05:25:16.900Z,31.87
2018-11-23T05:27:46.232Z,33.08
2018-11-23T05:30:17.861Z,32.83
2018-11-23T05:32:47.187Z,32.33
2018-11-23T05:35:17.127Z,33.25
2018-11-23T05:37:46.423Z,35.17
2018-11-23T05:40:17.438Z,30.80
2018-11-23T05:42:46.614Z,32.13
2018-11-23T05:45:17.181Z,31.40
2018-11-23T05:47:46.666Z,33.45
2018-11-23T05:50:17.428Z,32.80
2018-11-23T05:52:46.658Z,34.83
2018-11-23T05:55:15.936Z,32.48
2018-11-23T05:57:45.179Z,32.85
2018-11-23T06:00:19.860Z,33.58
2018-11-23T06:02:48.929Z,32.78
2018-11-23T06:05:18.103Z,31.68
2018-11-23T06:07:47.508Z,33.92
2018-11-23T06:10:17.853Z,32.50
2018-11-23T06:12:47.066Z,34.48
2018-11-23T06:15:21.313Z,31.80
2018-11-23T06:17:50.791Z,33.75
2018-11-23T06:20:21.968Z,35.48
2018-11-23T06:22:52.127Z,33.28
2018-11-23T06:25:29.276Z,32.63
2018-11-23T06:27:58.515Z,32.55
2018-11-23T06:30:27.704Z,33.80
2018-11-23T06:33:08.262Z,33.70
2018-11-23T06:35:37.306Z,32.50
2018-11-23T06:38:06.680Z,33.35
2018-11-23T06:40:36.012Z,33.13
2018-11-23T06:43:05.707Z,33.05
2018-11-23T06:45:37.704Z,33.08
2018-11-23T06:48:07.545Z,35.23
2018-11-23T06:50:37.272Z,32.23
2018-11-23T06:53:06.724Z,34.60
2018-11-23T06:55:35.988Z,32.17
2018-11-23T06:58:05.459Z,34.05
2018-11-23T07:00:34.626Z,33.28
2018-11-23T07:03:03.908Z,32.08
2018-11-23T07:05:33.121Z,32.98
2018-11-23T07:08:02.298Z,34.70
2018-11-23T07:10:31.491Z,32.70
2018-11-23T07:13:00.675Z,34.15
2018-11-23T07:15:29.988Z,34.10
2018-11-23T07:17:59.007Z,34.80
2018-11-23T07:20:28.176Z,33.73
2018-11-23T07:22:57.285Z,32.65
2018-11-23T07:25:26.450Z,33.18
2018-11-23T07:27:55.622Z,33.13
2018-11-23T07:30:26.098Z,34.35
2018-11-23T07:32:58.116Z,31.68
2018-11-23T07:35:27.401Z,31.90
2018-11-23T07:37:56.485Z,32.13
2018-11-23T07:40:39.375Z,31.97
2018-11-23T07:43:08.537Z,31.70
2018-11-23T07:45:37.775Z,31.95
2018-11-23T07:48:07.216Z,31.55
2018-11-23T07:50:36.386Z,33.20
2018-11-23T07:53:05.898Z,31.93
2018-11-23T07:55:35.137Z,33.13
2018-11-23T07:58:05.055Z,32.35
2018-11-23T08:00:34.159Z,30.17
2018-11-23T08:03:03.544Z,32.30
2018-11-23T08:05:33.607Z,32.83
2018-11-23T08:08:02.728Z,33.83
2018-11-23T08:10:31.245Z,29.92
2018-11-23T08:13:00.405Z,28.87
2018-11-23T08:15:29.688Z,26.60
2018-11-23T08:17:59.015Z,26.65
2018-11-23T08:20:28.266Z,27.80
2018-11-23T08:22:57.499Z,27.50
2018-11-23T08:25:27.140Z,27.67
2018-11-23T08:27:57.036Z,27.00
2018-11-23T08:30:28.996Z,26.57
2018-11-23T08:32:58.692Z,28.23
2018-11-23T08:35:28.113Z,28.75
2018-11-23T08:37:57.494Z,32.42
2018-11-23T08:40:27.592Z,27.00
2018-11-23T08:42:57.397Z,26.90
2018-11-23T08:45:27.527Z,26.77
2018-11-23T08:47:56.712Z,24.67
2018-11-23T08:50:27.465Z,26.42
2018-11-23T08:52:56.797Z,25.15
2018-11-23T08:55:26.667Z,24.18
2018-11-23T08:57:56.041Z,25.17
2018-11-23T09:00:26.555Z,24.57
2018-11-23T09:02:58.557Z,28.32
2018-11-23T09:05:28.146Z,26.07
2018-11-23T09:07:57.707Z,24.90
2018-11-23T09:10:28.358Z,23.67
2018-11-23T09:12:59.187Z,23.70
2018-11-23T09:15:28.335Z,22.90
2018-11-23T09:17:57.561Z,23.05
2018-11-23T09:20:27.471Z,23.25
2018-11-23T09:22:56.679Z,25.55
2018-11-23T09:25:26.030Z,22.73
2018-11-23T09:27:55.330Z,23.40
2018-11-23T09:30:25.956Z,21.93
2018-11-23T09:32:56.020Z,21.73
2018-11-23T09:35:26.046Z,23.30
2018-11-23T09:37:55.266Z,20.88
2018-11-23T09:40:25.990Z,20.90
2018-11-23T09:42:55.756Z,21.57
2018-11-23T09:45:26.443Z,20.25
2018-11-23T09:47:57.489Z,20.55
2018-11-23T09:50:27.247Z,19.00
2018-11-23T09:52:57.721Z,22.87
2018-11-23T09:55:27.752Z,18.67
2018-11-23T09:57:57.266Z,20.10
2018-11-23T10:00:27.919Z,18.75
2018-11-23T10:02:57.690Z,20.27
2018-11-23T10:05:27.595Z,19.67
2018-11-23T10:07:58.222Z,19.00
2018-11-23T10:10:28.059Z,20.60
2018-11-23T10:12:57.237Z,19.82
2018-11-23T10:15:27.524Z,21.57
2018-11-23T10:17:56.883Z,22.05
2018-11-23T10:20:27.497Z,21.97
2018-11-23T10:22:57.381Z,22.13
2018-11-23T10:25:27.794Z,21.65
2018-11-23T10:27:57.111Z,21.87
2018-11-23T10:30:28.500Z,23.80
2018-11-23T10:32:59.033Z,21.48
2018-11-23T10:35:28.328Z,24.27
2018-11-23T10:37:58.677Z,26.35
2018-11-23T10:40:29.551Z,27.32
2018-11-23T10:42:58.696Z,24.82
2018-11-23T10:45:29.332Z,26.15
2018-11-23T10:47:59.301Z,23.20
2018-11-23T10:50:29.999Z,25.90
2018-11-23T10:52:59.098Z,25.08
2018-11-23T10:55:29.914Z,25.72
2018-11-23T10:57:59.072Z,23.60
2018-11-23T11:00:33.465Z,22.93
2018-11-23T11:03:04.261Z,22.77
2018-11-23T11:07:44.680Z,23.95
2018-11-23T11:10:14.205Z,21.60
2018-11-23T11:12:43.357Z,21.68
2018-11-23T11:15:12.519Z,21.27
2018-11-23T11:17:41.714Z,20.12
2018-11-23T11:20:10.863Z,21.27
2018-11-23T11:22:39.997Z,22.30
2018-11-23T11:25:10.042Z,22.22
2018-11-23T11:27:42.088Z,21.15
2018-11-23T11:30:13.636Z,22.95
2018-11-23T11:32:43.198Z,22.62
2018-11-23T11:35:12.833Z,24.87
2018-11-23T11:37:42.464Z,24.37
2018-11-23T11:40:14.102Z,22.07
2018-11-23T11:42:43.859Z,20.23
2018-11-23T11:45:14.999Z,21.02
2018-11-23T11:47:44.622Z,23.67
2018-11-23T11:50:14.247Z,21.55
2018-11-23T11:52:44.648Z,27.85
2018-11-23T11:55:15.326Z,24.18
2018-11-23T11:57:45.274Z,22.58
2018-11-23T12:00:17.241Z,22.75
2018-11-23T12:02:46.614Z,23.47
2018-11-23T12:05:15.848Z,21.27
2018-11-23T12:07:44.989Z,20.27
2018-11-23T12:10:29.192Z,23.32
2018-11-23T12:12:58.329Z,22.32
2018-11-23T12:15:27.493Z,21.65
2018-11-23T12:17:56.584Z,21.35
2018-11-23T12:20:26.097Z,21.48
2018-11-23T12:22:55.261Z,20.75
2018-11-23T12:25:24.599Z,20.17
2018-11-23T12:28:10.551Z,19.25
2018-11-23T12:30:40.214Z,20.60
2018-11-23T12:33:09.448Z,20.05
2018-11-23T12:35:38.722Z,20.68
2018-11-23T12:38:07.863Z,21.52
2018-11-23T12:40:37.194Z,21.15
2018-11-23T12:43:06.996Z,19.98
2018-11-23T12:45:36.600Z,20.08
2018-11-23T12:48:06.031Z,19.00
2018-11-23T12:50:35.304Z,20.62
2018-11-23T12:53:06.444Z,20.97
2018-11-23T12:55:34.013Z,21.85
2018-11-23T12:58:03.174Z,24.65
2018-11-23T13:00:32.649Z,23.98
2018-11-23T13:03:03.288Z,23.38
2018-11-23T13:05:33.455Z,21.82
2018-11-23T13:08:04.037Z,22.70
2018-11-23T13:10:33.378Z,23.18
2018-11-23T13:13:02.994Z,20.23
2018-11-23T13:15:32.291Z,21.65
2018-11-23T13:18:01.739Z,20.50
2018-11-23T13:20:30.953Z,21.12
2018-11-23T13:23:00.083Z,22.15
2018-11-23T13:25:30.585Z,22.07
2018-11-23T13:27:59.899Z,20.15
2018-11-23T13:30:33.225Z,20.52
2018-11-23T13:33:02.425Z,19.35
2018-11-23T13:35:31.618Z,20.55
2018-11-23T13:38:00.778Z,19.82
2018-11-23T13:40:30.397Z,20.68
2018-11-23T13:43:00.324Z,19.92
2018-11-23T13:45:31.927Z,19.95
2018-11-23T13:48:01.040Z,20.70
2018-11-23T13:50:30.336Z,19.95
2018-11-23T13:53:01.610Z,20.10
2018-11-23T13:55:31.518Z,22.90
2018-11-23T13:58:01.278Z,24.67
2018-11-23T14:00:30.771Z,23.07
2018-11-23T14:03:00.110Z,20.40
2018-11-23T14:05:31.078Z,21.90
2018-11-23T14:08:01.617Z,20.97
2018-11-23T14:10:31.154Z,19.73
2018-11-23T14:13:00.532Z,24.12
2018-11-23T14:15:31.087Z,24.23
2018-11-23T14:18:00.807Z,22.80
2018-11-23T14:20:30.348Z,21.95
2018-11-23T14:22:59.648Z,32.42
2018-11-23T14:25:30.314Z,27.62
2018-11-23T14:27:59.688Z,30.68
2018-11-23T14:30:30.377Z,31.17
2018-11-23T14:33:00.117Z,39.42
2018-11-23T14:35:30.292Z,37.40
2018-11-23T14:38:02.087Z,32.30
2018-11-23T14:40:31.361Z,27.20
2018-11-23T14:43:00.534Z,24.95
2018-11-23T14:45:31.136Z,20.57
2018-11-23T14:48:03.424Z,20.82
2018-11-23T14:50:33.716Z,22.32
2018-11-23T14:53:02.852Z,25.52
2018-11-23T14:55:33.419Z,22.77
2018-11-23T14:58:02.675Z,21.82
2018-11-23T15:00:36.110Z,22.67
2018-11-23T15:03:06.307Z,21.93
2018-11-23T15:05:35.883Z,22.70
2018-11-23T15:08:05.182Z,23.50
2018-11-23T15:10:35.262Z,22.52
2018-11-23T15:13:05.389Z,22.58
2018-11-23T15:15:35.947Z,23.25
2018-11-23T15:18:05.619Z,22.58
2018-11-23T15:20:38.334Z,22.50
2018-11-23T15:23:09.041Z,22.15
2018-11-23T15:25:38.503Z,25.15
2018-11-23T15:28:08.579Z,24.82
2018-11-23T15:30:38.353Z,23.45
2018-11-23T15:33:08.247Z,24.47
2018-11-23T15:35:38.209Z,26.05
2018-11-23T15:38:10.249Z,24.00
2018-11-23T15:40:38.359Z,25.50
2018-11-23T15:43:09.653Z,25.57
2018-11-23T15:45:39.214Z,26.33
2018-11-23T15:48:09.025Z,25.08
2018-11-23T15:50:39.637Z,26.15
2018-11-23T15:53:10.355Z,24.35
2018-11-23T15:55:39.947Z,25.20
2018-11-23T15:58:11.504Z,25.50
2018-11-23T16:00:41.935Z,25.57
2018-11-23T16:03:12.426Z,25.20
2018-11-23T16:05:41.640Z,25.55
2018-11-23T16:08:13.216Z,28.80
2018-11-23T16:10:42.370Z,26.12
2018-11-23T16:13:12.087Z,28.55
2018-11-23T16:15:41.214Z,28.83
2018-11-23T16:18:10.673Z,28.17
2018-11-23T16:20:41.588Z,29.02
2018-11-23T16:23:12.119Z,27.73
2018-11-23T16:25:42.541Z,29.60
2018-11-23T16:28:12.200Z,31.02
2018-11-23T16:30:43.636Z,33.35
2018-11-23T16:33:14.132Z,41.37
2018-11-23T16:35:43.873Z,32.63
2018-11-23T16:38:15.507Z,26.55
2018-11-23T16:40:46.348Z,29.70
2018-11-23T16:43:16.160Z,28.02
2018-11-23T16:45:45.833Z,29.87
2018-11-23T16:48:15.773Z,28.95
2018-11-23T16:50:45.749Z,30.43
2018-11-23T16:53:15.236Z,31.97
2018-11-23T16:55:44.580Z,28.40
2018-11-23T16:58:14.340Z,32.10
2018-11-23T17:00:44.912Z,30.27
2018-11-23T17:03:15.794Z,31.27
2018-11-23T17:05:46.544Z,33.50
2018-11-23T17:08:15.690Z,31.80
2018-11-23T17:10:44.906Z,28.95
2018-11-23T17:13:14.192Z,29.37
2018-11-23T17:15:43.514Z,28.92
2018-11-23T17:18:12.852Z,33.70
2018-11-23T17:20:42.091Z,29.72
2018-11-23T17:23:12.374Z,29.98
2018-11-23T17:25:41.603Z,30.55
2018-11-23T17:28:11.520Z,29.07
2018-11-23T17:30:40.864Z,31.15
2018-11-23T17:33:10.143Z,30.10
2018-11-23T17:35:42.691Z,29.23
2018-11-23T17:38:11.992Z,28.65
2018-11-23T17:40:41.936Z,27.25
2018-11-23T17:43:11.403Z,29.25
2018-11-23T17:45:40.578Z,30.50
2018-11-23T17:48:09.833Z,32.17
2018-11-23T17:50:39.992Z,31.25
2018-11-23T17:53:09.155Z,30.85
2018-11-23T17:55:38.386Z,30.62
2018-11-23T17:58:07.718Z,33.50
2018-11-23T18:00:39.217Z,31.00
2018-11-23T18:03:06.851Z,29.25
2018-11-23T18:05:36.226Z,31.20
2018-11-23T18:08:05.990Z,30.82
2018-11-23T18:10:35.491Z,29.45
2018-11-23T18:13:04.973Z,29.98
2018-11-23T18:15:34.991Z,31.35
2018-11-23T18:18:05.378Z,29.05
2018-11-23T18:20:35.109Z,30.75
2018-11-23T18:23:04.968Z,30.43
2018-11-23T18:25:38.727Z,31.82
2018-11-23T18:28:07.881Z,31.83
2018-11-23T18:30:37.073Z,29.92
2018-11-23T18:33:07.876Z,31.93
2018-11-23T18:35:37.442Z,31.05
2018-11-23T18:38:07.504Z,31.17
2018-11-23T18:40:37.739Z,29.48
2018-11-23T18:43:06.443Z,30.45
2018-11-23T18:45:35.650Z,31.02
2018-11-23T18:48:05.201Z,29.32
2018-11-23T18:50:34.490Z,29.80
2018-11-23T18:53:03.711Z,29.25
2018-11-23T18:55:32.752Z,30.52
2018-11-23T18:58:02.949Z,31.20
2018-11-23T19:00:32.108Z,31.20
2018-11-23T19:03:01.409Z,36.33
2018-11-23T19:05:30.583Z,32.78
2018-11-23T19:07:59.683Z,35.38
2018-11-23T19:10:28.848Z,33.55
2018-11-23T19:12:57.927Z,34.70
2018-11-23T19:15:27.302Z,32.70
2018-11-23T19:17:56.643Z,35.05
2018-11-23T19:20:26.104Z,34.03
2018-11-23T19:22:55.773Z,36.20
2018-11-23T19:25:25.143Z,34.23
2018-11-23T19:27:54.516Z,34.55
2018-11-23T19:30:28.683Z,34.45
2018-11-23T19:32:55.154Z,35.20
2018-11-23T19:35:24.539Z,36.17
2018-11-23T19:37:53.741Z,35.35
2018-11-23T19:40:22.937Z,37.08
2018-11-23T19:42:55.491Z,35.63
2018-11-23T19:45:25.006Z,35.85
2018-11-23T19:47:54.235Z,36.45
2018-11-23T19:50:23.435Z,34.23
2018-11-23T19:52:52.574Z,35.38
2018-11-23T19:55:21.842Z,35.25
2018-11-23T19:57:51.162Z,37.85
2018-11-23T20:00:22.150Z,37.85
2018-11-23T20:02:51.830Z,36.63
2018-11-23T20:05:21.308Z,37.38
2018-11-23T20:07:52.888Z,36.93
2018-11-23T20:10:22.893Z,36.60
2018-11-23T20:12:53.498Z,36.40
2018-11-23T20:15:22.695Z,37.42
2018-11-23T20:17:51.900Z,36.17
2018-11-23T20:20:21.225Z,34.53
2018-11-23T20:22:50.979Z,36.13
2018-11-23T20:25:21.875Z,37.65
2018-11-23T20:27:52.030Z,35.92
2018-11-23T20:30:21.163Z,35.52
2018-11-23T20:32:50.445Z,36.48
2018-11-23T20:35:21.619Z,36.42
2018-11-23T20:37:50.873Z,37.00
2018-11-23T20:40:21.968Z,39.83
2018-11-23T20:42:51.405Z,37.50
2018-11-23T20:45:20.692Z,54.00
2018-11-23T20:47:49.935Z,37.95
2018-11-23T20:50:19.344Z,37.35
2018-11-23T20:52:48.584Z,37.90
2018-11-23T20:55:20.900Z,38.45
2018-11-23T20:57:50.071Z,39.30
2018-11-23T21:00:20.227Z,34.90
2018-11-23T21:02:50.464Z,37.65
2018-11-23T21:05:20.573Z,38.38
2018-11-23T21:07:53.205Z,37.23
2018-11-23T21:10:23.699Z,36.75
2018-11-23T21:12:53.188Z,37.50
2018-11-23T21:15:24.672Z,36.73
2018-11-23T21:17:54.014Z,37.90
2018-11-23T21:20:23.190Z,37.23
2018-11-23T21:22:52.564Z,38.55
2018-11-23T21:25:21.712Z,36.05
2018-11-23T21:27:50.786Z,36.45
2018-11-23T21:30:21.387Z,36.63
2018-11-23T21:32:51.108Z,38.02
2018-11-23T21:35:20.242Z,37.10
2018-11-23T21:37:49.456Z,37.50
2018-11-23T21:40:18.860Z,39.30
2018-11-23T21:42:48.097Z,38.73
2018-11-23T21:45:18.747Z,38.08
2018-11-23T21:47:48.117Z,37.03
2018-11-23T21:50:25.496Z,37.67
2018-11-23T21:52:50.575Z,38.38
2018-11-23T21:55:21.882Z,36.25
2018-11-23T21:57:51.549Z,37.42
2018-11-23T22:00:20.731Z,38.35
2018-11-23T22:02:49.896Z,38.50
2018-11-23T22:05:19.281Z,36.13
2018-11-23T22:07:48.415Z,36.93
2018-11-23T22:10:19.375Z,36.55
2018-11-23T22:12:48.669Z,34.88
2018-11-23T22:15:21.856Z,37.55
2018-11-23T22:17:52.266Z,35.03
2018-11-23T22:20:22.189Z,36.75
2018-11-23T22:22:51.414Z,35.95
2018-11-23T22:25:21.576Z,35.23
2018-11-23T22:27:50.640Z,36.33
2018-11-23T22:30:23.426Z,35.80
2018-11-23T22:32:52.936Z,37.37
2018-11-23T22:35:22.161Z,34.63
2018-11-23T22:37:51.396Z,35.10
2018-11-23T22:40:21.270Z,34.70
2018-11-23T22:42:52.026Z,37.08
2018-11-23T22:45:21.237Z,36.77
2018-11-23T22:47:50.575Z,36.63
2018-11-23T22:50:21.728Z,36.27
2018-11-23T22:52:51.087Z,34.88
2018-11-23T22:55:20.608Z,34.90
2018-11-23T22:57:49.768Z,36.20
2018-11-23T23:00:26.398Z,36.93
2018-11-23T23:02:55.745Z,34.53
2018-11-23T23:05:25.270Z,35.23
2018-11-23T23:07:54.536Z,34.98
2018-11-23T23:10:23.723Z,36.83
2018-11-23T23:12:53.025Z,36.98
2018-11-23T23:15:22.240Z,36.10
2018-11-23T23:17:51.411Z,35.35
2018-11-23T23:20:24.525Z,35.15
2018-11-23T23:22:53.893Z,34.93
2018-11-23T23:25:23.037Z,35.83
2018-11-23T23:27:52.309Z,37.05
2018-11-23T23:30:22.220Z,35.43
2018-11-23T23:32:51.329Z,35.13
2018-11-23T23:35:20.604Z,37.40
2018-11-23T23:37:49.844Z,33.38
2018-11-23T23:40:19.244Z,35.15
2018-11-23T23:42:48.767Z,34.67
2018-11-23T23:45:19.021Z,35.23
2018-11-23T23:47:48.357Z,35.30
2018-11-23T23:50:22.158Z,35.05
2018-11-23T23:52:51.694Z,35.58
2018-11-23T23:55:20.964Z,34.07
2018-11-23T23:57:50.366Z,34.67
